createdAt,value
2022-11-24T00:00:22.342Z,36.962857
2022-11-24T00:05:25.075Z,36.260000
2022-11-24T00:10:27.813Z,35.708000
2022-11-24T00:15:30.539Z,35.108000
2022-11-24T00:20:33.537Z,34.640000
2022-11-24T00:25:36.073Z,34.196000
2022-11-24T00:30:18.322Z,34.016000
2022-11-24T00:35:20.872Z,33.920000
2022-11-24T00:40:23.707Z,33.581429
2022-11-24T00:45:26.391Z,33.128000
2022-11-24T00:50:28.908Z,33.080000
2022-11-24T00:55:31.848Z,33.236000
2022-11-24T01:00:33.943Z,33.404000
2022-11-24T01:05:16.684Z,33.260000
2022-11-24T01:10:19.967Z,33.416000
2022-11-24T01:15:23.522Z,33.440000
2022-11-24T01:20:26.797Z,33.728000
2022-11-24T01:25:29.525Z,33.668000
2022-11-24T01:30:33.525Z,33.224000
2022-11-24T01:35:15.893Z,32.780000
2022-11-24T01:40:19.267Z,32.456000
2022-11-24T01:45:22.737Z,31.910000
2022-11-24T01:50:25.484Z,32.348000
2022-11-24T01:55:27.787Z,32.276000
2022-11-24T02:00:30.684Z,31.748000
2022-11-24T02:05:32.762Z,31.136000
2022-11-24T02:10:35.018Z,30.488000
2022-11-24T02:15:17.636Z,30.512000
2022-11-24T02:20:20.020Z,30.188000
2022-11-24T02:25:22.313Z,30.110000
2022-11-24T02:30:24.747Z,30.728000
2022-11-24T02:35:39.237Z,30.548000
2022-11-24T02:40:29.404Z,31.064000
2022-11-24T02:45:32.194Z,31.220000
2022-11-24T02:50:34.826Z,31.220000
2022-11-24T02:55:17.146Z,31.004000
2022-11-24T03:00:19.851Z,31.028000
2022-11-24T03:05:22.498Z,31.100000
2022-11-24T03:10:24.851Z,31.124000
2022-11-24T03:15:27.602Z,31.448000
2022-11-24T03:20:29.933Z,31.148000
2022-11-24T03:25:32.155Z,30.488000
2022-11-24T03:30:34.280Z,30.488000
2022-11-24T03:35:16.585Z,30.956000
2022-11-24T03:40:19.240Z,31.364000
2022-11-24T03:45:57.372Z,31.412000
2022-11-24T03:50:23.918Z,31.460000
2022-11-24T03:55:26.684Z,31.208000
2022-11-24T04:00:29.387Z,31.040000
2022-11-24T04:05:31.846Z,31.100000
2022-11-24T04:10:34.636Z,30.776000
2022-11-24T04:15:17.335Z,30.560000
2022-11-24T04:20:20.527Z,30.740000
2022-11-24T04:25:23.470Z,30.482857
2022-11-24T04:30:26.261Z,29.996000
2022-11-24T04:35:29.068Z,29.792000
2022-11-24T04:40:31.794Z,29.840000
2022-11-24T04:45:34.890Z,29.984000
2022-11-24T04:50:17.226Z,30.225714
2022-11-24T04:55:19.984Z,30.492500
2022-11-24T05:00:22.387Z,30.855714
2022-11-24T05:05:25.175Z,30.776000
2022-11-24T05:10:28.896Z,30.284000
2022-11-24T05:15:32.147Z,29.960000
2022-11-24T05:20:34.786Z,29.684000
2022-11-24T05:25:17.073Z,29.456000
2022-11-24T05:30:20.433Z,29.012000
2022-11-24T05:35:23.584Z,28.618571
2022-11-24T05:40:26.788Z,28.436000
2022-11-24T05:45:30.555Z,28.268000
2022-11-24T05:50:35.607Z,28.724000
2022-11-24T05:55:17.518Z,29.516000
2022-11-24T06:00:32.424Z,28.664000
2022-11-24T06:05:23.099Z,28.400000
2022-11-24T06:10:26.419Z,29.468000
2022-11-24T06:15:29.387Z,30.008000
2022-11-24T06:20:33.833Z,29.444000
2022-11-24T06:25:22.192Z,28.940000
2022-11-24T06:30:25.811Z,28.796000
2022-11-24T06:35:30.328Z,29.624000
2022-11-24T06:40:33.507Z,29.960000
2022-11-24T06:45:15.909Z,29.840000
2022-11-24T06:50:18.907Z,29.936000
2022-11-24T06:55:21.437Z,29.168000
2022-11-24T07:00:24.027Z,28.747143
2022-11-24T07:05:27.355Z,28.388000
2022-11-24T07:10:29.220Z,28.352000
2022-11-24T07:15:31.454Z,28.352000
2022-11-24T07:20:34.148Z,27.680000
2022-11-24T07:25:16.256Z,27.272000
2022-11-24T07:30:21.130Z,27.308000
2022-11-24T07:35:22.984Z,27.332857
2022-11-24T07:40:25.578Z,27.164000
2022-11-24T07:45:28.138Z,27.272000
2022-11-24T07:50:30.868Z,27.104000
2022-11-24T07:55:33.294Z,27.248000
2022-11-24T08:00:35.626Z,26.612000
2022-11-24T08:05:17.933Z,26.252000
2022-11-24T08:10:20.517Z,26.480000
2022-11-24T08:15:23.137Z,26.381429
2022-11-24T08:20:26.410Z,26.744000
2022-11-24T08:25:29.248Z,25.868000
2022-11-24T08:30:31.235Z,25.604000
2022-11-24T08:35:33.838Z,25.652000
2022-11-24T08:40:15.961Z,25.748000
2022-11-24T08:45:21.200Z,25.820000
2022-11-24T08:50:21.112Z,25.364000
2022-11-24T08:55:23.956Z,25.224286
2022-11-24T09:00:26.476Z,25.640000
2022-11-24T09:05:51.153Z,26.108000
2022-11-24T09:10:31.899Z,25.556000
2022-11-24T09:15:34.657Z,26.264000
2022-11-24T09:20:17.043Z,26.407143
2022-11-24T09:25:19.984Z,26.251250
2022-11-24T09:30:23.133Z,26.265714
2022-11-24T09:35:25.566Z,26.060000
2022-11-24T09:40:28.141Z,26.000000
2022-11-24T09:46:03.231Z,26.060000
2022-11-24T09:50:33.482Z,26.132000
2022-11-24T09:55:16.039Z,27.428000
2022-11-24T10:00:18.844Z,27.908000
2022-11-24T10:05:21.045Z,28.280000
2022-11-24T10:10:25.276Z,28.310000
2022-11-24T10:15:26.554Z,28.040000
2022-11-24T10:20:29.191Z,27.224000
2022-11-24T10:25:31.996Z,27.428000
2022-11-24T10:30:35.728Z,27.548000
2022-11-24T10:35:17.046Z,27.224000
2022-11-24T10:40:40.960Z,24.788000
2022-11-24T10:45:21.999Z,24.860000
2022-11-24T10:50:24.621Z,25.121429
2022-11-24T10:55:27.630Z,25.064000
2022-11-24T11:00:29.739Z,25.556000
2022-11-24T11:05:32.548Z,25.604000
2022-11-24T11:10:35.041Z,25.568000
2022-11-24T11:15:17.271Z,25.976000
2022-11-24T11:20:20.285Z,26.021429
2022-11-24T11:25:22.573Z,26.276000
2022-11-24T11:31:36.368Z,26.756000
2022-11-24T11:35:28.442Z,26.492000
2022-11-24T11:40:30.633Z,24.464000
2022-11-24T11:45:33.081Z,23.156000
2022-11-24T11:50:47.377Z,22.484000
2022-11-24T11:55:18.196Z,22.280000
2022-11-24T12:00:20.870Z,22.364000
2022-11-24T12:05:23.856Z,22.550000
2022-11-24T12:10:26.767Z,22.280000
2022-11-24T12:15:29.323Z,21.956000
2022-11-24T12:20:31.945Z,21.740000
2022-11-24T12:25:34.473Z,21.608000
2022-11-24T12:30:16.638Z,21.332000
2022-11-24T12:35:19.777Z,21.500000
2022-11-24T12:40:21.984Z,21.920000
2022-11-24T12:45:24.281Z,22.588571
2022-11-24T12:50:26.568Z,24.596000
2022-11-24T12:55:29.315Z,25.340000
2022-11-24T13:00:31.935Z,24.488000
2022-11-24T13:05:34.605Z,22.232000
2022-11-24T13:10:16.891Z,22.316000
2022-11-24T13:15:44.778Z,21.872000
2022-11-24T13:20:22.169Z,21.418571
2022-11-24T13:25:24.902Z,21.080000
2022-11-24T13:30:27.207Z,21.104000
2022-11-24T13:35:29.572Z,20.876000
2022-11-24T13:40:32.039Z,21.212000
2022-11-24T13:45:34.729Z,21.452000
2022-11-24T13:50:17.345Z,21.428000
2022-11-24T13:55:19.898Z,21.632000
2022-11-24T14:00:22.832Z,21.354286
2022-11-24T14:05:25.664Z,22.052000
2022-11-24T14:10:28.661Z,22.028000
2022-11-24T14:15:31.208Z,22.820000
2022-11-24T14:20:33.974Z,22.316000
2022-11-24T14:25:16.175Z,21.656000
2022-11-24T14:30:18.940Z,21.140000
2022-11-24T14:35:21.720Z,20.852000
2022-11-24T14:40:24.234Z,20.557143
2022-11-24T14:45:26.666Z,20.348000
2022-11-24T14:50:29.288Z,20.636000
2022-11-24T14:55:31.878Z,20.384000
2022-11-24T15:00:34.005Z,20.564000
2022-11-24T15:05:16.180Z,21.188000
2022-11-24T15:10:18.711Z,21.824000
2022-11-24T15:15:20.909Z,22.592000
2022-11-24T15:20:24.835Z,23.077143
2022-11-24T15:25:26.534Z,23.864000
2022-11-24T15:30:29.146Z,24.608000
2022-11-24T15:35:31.871Z,25.064000
2022-11-24T15:40:34.436Z,26.072000
2022-11-24T15:45:16.745Z,28.448000
2022-11-24T15:50:19.466Z,29.588000
2022-11-24T15:55:22.522Z,30.824000
2022-11-24T16:00:24.735Z,30.997143
2022-11-24T16:05:27.335Z,31.520000
2022-11-24T16:10:29.906Z,32.072000
2022-11-24T16:15:32.970Z,32.768000
2022-11-24T16:20:47.441Z,33.344000
2022-11-24T16:25:17.657Z,33.236000
2022-11-24T16:30:20.284Z,34.052000
2022-11-24T16:35:23.272Z,33.735714
2022-11-24T16:40:25.912Z,33.860000
2022-11-24T16:45:28.724Z,33.596000
2022-11-24T16:50:31.541Z,33.704000
2022-11-24T16:55:34.666Z,34.112000
2022-11-24T17:00:16.082Z,34.580000
2022-11-24T17:05:18.530Z,34.424000
2022-11-24T17:10:21.162Z,33.692000
2022-11-24T17:15:34.446Z,33.658571
2022-11-24T17:20:26.363Z,33.536000
2022-11-24T17:25:29.309Z,34.064000
2022-11-24T17:30:31.715Z,34.856000
2022-11-24T17:35:34.177Z,35.504000
2022-11-24T17:40:32.130Z,35.096000
2022-11-24T17:45:19.001Z,35.660000
2022-11-24T17:50:25.696Z,36.248000
2022-11-24T17:55:24.033Z,36.602857
2022-11-24T18:00:26.840Z,36.920000
2022-11-24T18:05:28.897Z,36.920000
2022-11-24T18:10:31.382Z,36.632000
2022-11-24T18:15:34.500Z,36.356000
2022-11-24T18:20:16.733Z,37.244000
2022-11-24T18:25:19.258Z,38.060000
2022-11-24T18:30:22.404Z,37.361429
2022-11-24T18:35:24.859Z,38.084000
2022-11-24T18:40:27.569Z,37.928000
2022-11-24T18:45:30.065Z,38.408000
2022-11-24T18:50:32.465Z,38.960000
2022-11-24T18:55:35.305Z,39.284000
2022-11-24T19:00:17.244Z,39.320000
2022-11-24T19:05:19.924Z,39.008000
2022-11-24T19:10:22.439Z,39.650000
2022-11-24T19:15:24.920Z,40.232000
2022-11-24T19:20:27.406Z,40.124000
2022-11-24T19:25:30.047Z,40.220000
2022-11-24T19:30:32.424Z,39.608000
2022-11-24T19:35:35.207Z,39.524000
2022-11-24T19:40:18.064Z,39.740000
2022-11-24T19:45:20.823Z,40.208000
2022-11-24T19:50:23.653Z,39.855714
2022-11-24T19:55:26.595Z,40.076000
2022-11-24T20:00:32.109Z,40.484000
2022-11-24T20:05:31.761Z,41.180000
2022-11-24T20:10:34.126Z,40.976000
2022-11-24T20:15:16.509Z,40.724000
2022-11-24T20:20:19.015Z,40.544000
2022-11-24T20:25:21.714Z,40.628000
2022-11-24T20:30:24.268Z,41.102857
2022-11-24T20:35:27.820Z,41.300000
2022-11-24T20:40:29.349Z,41.180000
2022-11-24T20:45:32.049Z,40.784000
2022-11-24T20:50:34.338Z,41.252000
2022-11-24T20:55:16.499Z,41.072000
2022-11-24T21:00:19.393Z,40.556000
2022-11-24T21:05:21.805Z,41.072000
2022-11-24T21:10:24.088Z,41.180000
2022-11-24T21:15:26.827Z,41.096000
2022-11-24T21:20:29.551Z,41.300000
2022-11-24T21:25:32.298Z,41.768000
2022-11-24T21:30:34.606Z,41.588000
2022-11-24T21:35:16.921Z,42.428000
2022-11-24T21:40:19.800Z,42.848000
2022-11-24T21:45:21.986Z,43.352000
2022-11-24T21:50:24.604Z,43.507143
2022-11-24T21:55:27.124Z,42.752000
2022-11-24T22:00:30.368Z,42.140000
2022-11-24T22:05:32.705Z,42.476000
2022-11-24T22:10:35.074Z,41.972000
2022-11-24T22:15:17.914Z,42.200000
2022-11-24T22:20:20.299Z,42.092000
2022-11-24T22:25:22.974Z,41.951429
2022-11-24T22:30:25.757Z,42.536000
2022-11-24T22:35:28.551Z,42.104000
2022-11-24T22:40:31.692Z,42.584000
2022-11-24T22:45:34.708Z,42.200000
2022-11-24T22:50:17.003Z,42.044000
2022-11-24T22:55:19.700Z,42.428000
2022-11-24T23:00:22.861Z,42.350000
2022-11-24T23:05:25.554Z,42.380000
2022-11-24T23:10:28.302Z,41.960000
2022-11-24T23:15:30.940Z,41.876000
2022-11-24T23:20:34.391Z,41.660000
2022-11-24T23:25:16.925Z,41.456000
2022-11-24T23:30:19.507Z,41.084000
2022-11-24T23:35:22.115Z,41.308571
2022-11-24T23:40:24.601Z,40.916000
2022-11-24T23:45:27.289Z,41.228000
2022-11-24T23:50:29.900Z,40.244000
2022-11-24T23:55:32.324Z,39.392000
